Eureka の空港の天気 - METARとTAF

Eureka ( CWEU / ) - カナダ ヌナブト準州Eureka
飛行場実況気象(Metar)
観測時間09/22 18:00 CDT (09/22 23:00 UTC)
風向・風速南西 1m/s
視程10km以上
天気現象
全天の8割程度の雲 雲底高度 240m
全天の8割程度の雲 雲底高度 980m
気温-9℃
湿度92%
気圧1014.6hPa
METARCWEU 222300Z 22002KT 15SM BKN008 BKN032 M09/M10 A2993 RMK SC7SC1 SC TR SLP146
過去の天気等 Google飛行場航空写真 Wunderground天気予報

過去48時間のMETAR

飛行場予報(TAF)
データがありません